sensor_id;sensor_type;location;lat;lon;timestamp;P1;durP1;ratioP1;P2;durP2;ratioP2
13295;SDS011;64850;60.390;-1.374;2022-11-15T00:00:50;25.60;;;9.90;;
13295;SDS011;64850;60.390;-1.374;2022-11-15T00:03:17;24.80;;;10.32;;
13295;SDS011;64850;60.390;-1.374;2022-11-15T00:05:44;28.10;;;11.00;;
13295;SDS011;64850;60.390;-1.374;2022-11-15T00:08:11;26.08;;;10.40;;
13295;SDS011;64850;60.390;-1.374;2022-11-15T00:10:37;18.52;;;9.20;;
13295;SDS011;64850;60.390;-1.374;2022-11-15T00:13:07;22.67;;;11.10;;
13295;SDS011;64850;60.390;-1.374;2022-11-15T00:15:38;26.65;;;10.45;;
13295;SDS011;64850;60.390;-1.374;2022-11-15T00:18:05;22.95;;;10.32;;
13295;SDS011;64850;60.390;-1.374;2022-11-15T00:20:33;24.05;;;11.02;;
13295;SDS011;64850;60.390;-1.374;2022-11-15T00:22:59;20.27;;;9.15;;
13295;SDS011;64850;60.390;-1.374;2022-11-15T00:25:26;21.52;;;10.10;;
13295;SDS011;64850;60.390;-1.374;2022-11-15T00:27:54;23.23;;;9.95;;
13295;SDS011;64850;60.390;-1.374;2022-11-15T00:30:29;20.85;;;10.15;;
13295;SDS011;64850;60.390;-1.374;2022-11-15T00:32:55;25.48;;;10.75;;
13295;SDS011;64850;60.390;-1.374;2022-11-15T00:35:21;24.65;;;10.90;;
13295;SDS011;64850;60.390;-1.374;2022-11-15T00:37:47;25.45;;;10.48;;
13295;SDS011;64850;60.390;-1.374;2022-11-15T00:40:13;25.58;;;9.95;;
13295;SDS011;64850;60.390;-1.374;2022-11-15T00:42:40;28.83;;;10.98;;
13295;SDS011;64850;60.390;-1.374;2022-11-15T00:45:07;31.55;;;11.63;;
13295;SDS011;64850;60.390;-1.374;2022-11-15T00:47:33;29.70;;;11.35;;
13295;SDS011;64850;60.390;-1.374;2022-11-15T00:49:59;32.78;;;13.60;;
13295;SDS011;64850;60.390;-1.374;2022-11-15T00:52:25;27.45;;;13.20;;
13295;SDS011;64850;60.390;-1.374;2022-11-15T00:54:51;28.23;;;14.05;;
13295;SDS011;64850;60.390;-1.374;2022-11-15T00:57:17;32.10;;;15.02;;
13295;SDS011;64850;60.390;-1.374;2022-11-15T00:59:43;33.55;;;15.23;;
13295;SDS011;64850;60.390;-1.374;2022-11-15T01:02:09;36.67;;;15.07;;
13295;SDS011;64850;60.390;-1.374;2022-11-15T01:04:35;32.88;;;15.43;;
13295;SDS011;64850;60.390;-1.374;2022-11-15T01:07:01;32.03;;;15.77;;
13295;SDS011;64850;60.390;-1.374;2022-11-15T01:09:27;29.10;;;15.10;;
13295;SDS011;64850;60.390;-1.374;2022-11-15T01:11:53;32.97;;;14.57;;
13295;SDS011;64850;60.390;-1.374;2022-11-15T01:14:18;30.48;;;14.48;;
13295;SDS011;64850;60.390;-1.374;2022-11-15T01:16:44;38.63;;;14.63;;
13295;SDS011;64850;60.390;-1.374;2022-11-15T01:19:10;41.20;;;15.38;;
13295;SDS011;64850;60.390;-1.374;2022-11-15T01:21:36;33.65;;;14.63;;
13295;SDS011;64850;60.390;-1.374;2022-11-15T01:24:02;41.28;;;14.32;;
13295;SDS011;64850;60.390;-1.374;2022-11-15T01:26:28;35.20;;;14.80;;
13295;SDS011;64850;60.390;-1.374;2022-11-15T01:28:54;38.65;;;14.65;;
13295;SDS011;64850;60.390;-1.374;2022-11-15T01:31:20;34.78;;;13.07;;
13295;SDS011;64850;60.390;-1.374;2022-11-15T01:33:47;31.13;;;14.35;;
13295;SDS011;64850;60.390;-1.374;2022-11-15T01:36:15;27.88;;;12.98;;
13295;SDS011;64850;60.390;-1.374;2022-11-15T01:38:47;25.20;;;12.63;;
13295;SDS011;64850;60.390;-1.374;2022-11-15T01:41:24;31.80;;;13.98;;
13295;SDS011;64850;60.390;-1.374;2022-11-15T01:43:52;34.53;;;14.65;;
13295;SDS011;64850;60.390;-1.374;2022-11-15T01:49:21;30.02;;;13.40;;
13295;SDS011;64850;60.390;-1.374;2022-11-15T01:51:46;31.25;;;13.60;;
13295;SDS011;64850;60.390;-1.374;2022-11-15T01:54:13;31.63;;;13.93;;
13295;SDS011;64850;60.390;-1.374;2022-11-15T01:56:46;25.45;;;11.85;;
13295;SDS011;64850;60.390;-1.374;2022-11-15T01:59:34;28.58;;;11.35;;
13295;SDS011;64850;60.390;-1.374;2022-11-15T02:02:05;25.50;;;11.65;;
13295;SDS011;64850;60.390;-1.374;2022-11-15T02:04:32;25.38;;;11.13;;
13295;SDS011;64850;60.390;-1.374;2022-11-15T02:07:03;27.70;;;10.35;;
13295;SDS011;64850;60.390;-1.374;2022-11-15T02:09:32;26.65;;;11.23;;
13295;SDS011;64850;60.390;-1.374;2022-11-15T02:11:58;25.95;;;10.75;;
13295;SDS011;64850;60.390;-1.374;2022-11-15T02:14:25;25.95;;;11.20;;
13295;SDS011;64850;60.390;-1.374;2022-11-15T02:27:33;22.25;;;9.95;;
13295;SDS011;64850;60.390;-1.374;2022-11-15T02:35:29;24.77;;;10.52;;
13295;SDS011;64850;60.390;-1.374;2022-11-15T02:40:46;20.70;;;9.30;;
13295;SDS011;64850;60.390;-1.374;2022-11-15T02:43:46;21.63;;;9.45;;
13295;SDS011;64850;60.390;-1.374;2022-11-15T02:49:13;17.65;;;8.52;;
13295;SDS011;64850;60.390;-1.374;2022-11-15T02:51:40;18.00;;;7.90;;
13295;SDS011;64850;60.390;-1.374;2022-11-15T02:54:12;20.08;;;8.30;;
13295;SDS011;64850;60.390;-1.374;2022-11-15T02:56:43;16.67;;;8.32;;
13295;SDS011;64850;60.390;-1.374;2022-11-15T03:04:58;18.65;;;8.68;;
13295;SDS011;64850;60.390;-1.374;2022-11-15T03:08:00;17.67;;;8.85;;
13295;SDS011;64850;60.390;-1.374;2022-11-15T03:10:42;21.23;;;8.95;;
13295;SDS011;64850;60.390;-1.374;2022-11-15T03:13:27;21.98;;;9.68;;
13295;SDS011;64850;60.390;-1.374;2022-11-15T03:16:09;21.60;;;9.35;;
13295;SDS011;64850;60.390;-1.374;2022-11-15T03:18:43;22.48;;;10.35;;
13295;SDS011;64850;60.390;-1.374;2022-11-15T03:21:15;22.45;;;10.23;;
13295;SDS011;64850;60.390;-1.374;2022-11-15T03:23:43;23.75;;;11.10;;
13295;SDS011;64850;60.390;-1.374;2022-11-15T03:26:12;21.25;;;10.30;;
13295;SDS011;64850;60.390;-1.374;2022-11-15T03:28:52;23.98;;;9.52;;
13295;SDS011;64850;60.390;-1.374;2022-11-15T03:31:27;24.33;;;8.98;;
13295;SDS011;64850;60.390;-1.374;2022-11-15T03:34:55;22.15;;;8.27;;
13295;SDS011;64850;60.390;-1.374;2022-11-15T03:37:04;22.63;;;9.77;;
13295;SDS011;64850;60.390;-1.374;2022-11-15T03:39:32;24.42;;;8.40;;
13295;SDS011;64850;60.390;-1.374;2022-11-15T03:44:52;22.20;;;9.07;;
13295;SDS011;64850;60.390;-1.374;2022-11-15T03:47:39;20.60;;;9.25;;
13295;SDS011;64850;60.390;-1.374;2022-11-15T03:50:13;20.20;;;9.50;;
13295;SDS011;64850;60.390;-1.374;2022-11-15T03:52:42;20.40;;;9.40;;
13295;SDS011;64850;60.390;-1.374;2022-11-15T03:55:11;22.15;;;9.05;;
13295;SDS011;64850;60.390;-1.374;2022-11-15T03:57:40;22.10;;;9.50;;
13295;SDS011;64850;60.390;-1.374;2022-11-15T04:00:06;23.58;;;10.48;;
13295;SDS011;64850;60.390;-1.374;2022-11-15T04:02:32;29.80;;;9.98;;
13295;SDS011;64850;60.390;-1.374;2022-11-15T04:04:58;25.92;;;10.88;;
13295;SDS011;64850;60.390;-1.374;2022-11-15T04:07:24;29.92;;;12.43;;
13295;SDS011;64850;60.390;-1.374;2022-11-15T04:09:50;26.67;;;11.43;;
13295;SDS011;64850;60.390;-1.374;2022-11-15T04:12:31;23.92;;;11.10;;
13295;SDS011;64850;60.390;-1.374;2022-11-15T04:15:06;29.00;;;11.85;;
13295;SDS011;64850;60.390;-1.374;2022-11-15T04:20:05;30.52;;;12.52;;
13295;SDS011;64850;60.390;-1.374;2022-11-15T04:23:19;21.65;;;11.98;;
13295;SDS011;64850;60.390;-1.374;2022-11-15T04:26:12;26.67;;;12.45;;
13295;SDS011;64850;60.390;-1.374;2022-11-15T04:28:41;24.95;;;11.63;;
13295;SDS011;64850;60.390;-1.374;2022-11-15T04:31:26;29.17;;;12.75;;
13295;SDS011;64850;60.390;-1.374;2022-11-15T04:33:52;26.58;;;12.70;;
13295;SDS011;64850;60.390;-1.374;2022-11-15T04:36:18;27.98;;;13.07;;
13295;SDS011;64850;60.390;-1.374;2022-11-15T04:39:03;27.80;;;13.50;;
13295;SDS011;64850;60.390;-1.374;2022-11-15T04:41:29;31.58;;;15.18;;
13295;SDS011;64850;60.390;-1.374;2022-11-15T04:43:55;35.67;;;14.70;;
13295;SDS011;64850;60.390;-1.374;2022-11-15T04:46:22;25.50;;;13.90;;
13295;SDS011;64850;60.390;-1.374;2022-11-15T04:48:49;36.55;;;14.02;;
13295;SDS011;64850;60.390;-1.374;2022-11-15T04:51:15;32.20;;;14.93;;
13295;SDS011;64850;60.390;-1.374;2022-11-15T04:53:41;34.97;;;14.35;;
13295;SDS011;64850;60.390;-1.374;2022-11-15T04:56:07;32.55;;;15.48;;
13295;SDS011;64850;60.390;-1.374;2022-11-15T04:58:33;34.28;;;14.68;;
13295;SDS011;64850;60.390;-1.374;2022-11-15T05:01:11;41.30;;;16.48;;
13295;SDS011;64850;60.390;-1.374;2022-11-15T05:03:40;34.38;;;15.65;;
13295;SDS011;64850;60.390;-1.374;2022-11-15T05:06:24;37.00;;;15.80;;
13295;SDS011;64850;60.390;-1.374;2022-11-15T05:08:50;35.97;;;16.75;;
13295;SDS011;64850;60.390;-1.374;2022-11-15T05:11:16;41.42;;;15.77;;
13295;SDS011;64850;60.390;-1.374;2022-11-15T05:13:42;36.10;;;15.75;;
13295;SDS011;64850;60.390;-1.374;2022-11-15T05:16:08;41.20;;;16.77;;
13295;SDS011;64850;60.390;-1.374;2022-11-15T05:18:34;35.25;;;16.00;;
13295;SDS011;64850;60.390;-1.374;2022-11-15T05:21:04;39.38;;;16.17;;
13295;SDS011;64850;60.390;-1.374;2022-11-15T05:23:30;41.55;;;16.90;;
13295;SDS011;64850;60.390;-1.374;2022-11-15T05:26:00;40.55;;;16.73;;
13295;SDS011;64850;60.390;-1.374;2022-11-15T05:28:26;34.95;;;16.65;;
13295;SDS011;64850;60.390;-1.374;2022-11-15T05:30:52;39.10;;;18.58;;
13295;SDS011;64850;60.390;-1.374;2022-11-15T05:33:18;33.83;;;16.17;;
13295;SDS011;64850;60.390;-1.374;2022-11-15T05:35:50;39.03;;;16.55;;
13295;SDS011;64850;60.390;-1.374;2022-11-15T05:38:25;30.42;;;16.83;;
13295;SDS011;64850;60.390;-1.374;2022-11-15T05:40:51;36.78;;;16.67;;
13295;SDS011;64850;60.390;-1.374;2022-11-15T05:43:17;35.40;;;16.38;;
13295;SDS011;64850;60.390;-1.374;2022-11-15T05:45:43;31.90;;;15.13;;
13295;SDS011;64850;60.390;-1.374;2022-11-15T05:48:09;29.08;;;14.38;;
13295;SDS011;64850;60.390;-1.374;2022-11-15T05:50:36;27.75;;;13.38;;
13295;SDS011;64850;60.390;-1.374;2022-11-15T05:53:06;26.10;;;12.02;;
13295;SDS011;64850;60.390;-1.374;2022-11-15T05:55:37;25.67;;;11.10;;
13295;SDS011;64850;60.390;-1.374;2022-11-15T05:58:04;22.95;;;11.48;;
13295;SDS011;64850;60.390;-1.374;2022-11-15T06:00:29;20.25;;;10.65;;
13295;SDS011;64850;60.390;-1.374;2022-11-15T06:02:55;23.55;;;11.13;;
13295;SDS011;64850;60.390;-1.374;2022-11-15T06:05:21;21.48;;;10.68;;
13295;SDS011;64850;60.390;-1.374;2022-11-15T06:07:47;24.70;;;10.98;;
13295;SDS011;64850;60.390;-1.374;2022-11-15T06:10:13;28.48;;;12.57;;
13295;SDS011;64850;60.390;-1.374;2022-11-15T06:12:39;27.55;;;12.32;;
13295;SDS011;64850;60.390;-1.374;2022-11-15T06:15:08;27.75;;;12.65;;
13295;SDS011;64850;60.390;-1.374;2022-11-15T06:17:34;23.42;;;12.25;;
13295;SDS011;64850;60.390;-1.374;2022-11-15T06:20:00;32.38;;;13.32;;
13295;SDS011;64850;60.390;-1.374;2022-11-15T06:22:26;35.85;;;14.20;;
13295;SDS011;64850;60.390;-1.374;2022-11-15T06:24:51;28.23;;;12.55;;
13295;SDS011;64850;60.390;-1.374;2022-11-15T06:27:17;33.17;;;13.77;;
13295;SDS011;64850;60.390;-1.374;2022-11-15T06:29:43;29.77;;;14.35;;
13295;SDS011;64850;60.390;-1.374;2022-11-15T06:32:09;29.60;;;14.18;;
13295;SDS011;64850;60.390;-1.374;2022-11-15T06:34:35;31.20;;;15.05;;
13295;SDS011;64850;60.390;-1.374;2022-11-15T06:37:04;35.15;;;15.27;;
13295;SDS011;64850;60.390;-1.374;2022-11-15T06:39:30;32.28;;;15.40;;
13295;SDS011;64850;60.390;-1.374;2022-11-15T06:41:56;34.17;;;15.90;;
13295;SDS011;64850;60.390;-1.374;2022-11-15T06:44:21;42.72;;;15.98;;
13295;SDS011;64850;60.390;-1.374;2022-11-15T06:46:47;39.55;;;16.67;;
13295;SDS011;64850;60.390;-1.374;2022-11-15T06:49:13;37.88;;;15.35;;
13295;SDS011;64850;60.390;-1.374;2022-11-15T06:51:39;35.55;;;16.05;;
13295;SDS011;64850;60.390;-1.374;2022-11-15T06:54:05;34.05;;;16.15;;
13295;SDS011;64850;60.390;-1.374;2022-11-15T06:56:31;36.85;;;17.23;;
13295;SDS011;64850;60.390;-1.374;2022-11-15T06:58:58;35.55;;;15.93;;
13295;SDS011;64850;60.390;-1.374;2022-11-15T07:01:24;33.10;;;15.35;;
13295;SDS011;64850;60.390;-1.374;2022-11-15T07:03:50;34.63;;;16.63;;
13295;SDS011;64850;60.390;-1.374;2022-11-15T07:06:16;34.90;;;15.35;;
13295;SDS011;64850;60.390;-1.374;2022-11-15T07:08:42;34.10;;;14.77;;
13295;SDS011;64850;60.390;-1.374;2022-11-15T07:11:08;37.47;;;15.13;;
13295;SDS011;64850;60.390;-1.374;2022-11-15T07:13:34;36.05;;;16.50;;
13295;SDS011;64850;60.390;-1.374;2022-11-15T07:16:05;43.20;;;17.60;;
13295;SDS011;64850;60.390;-1.374;2022-11-15T07:18:36;39.92;;;17.20;;
13295;SDS011;64850;60.390;-1.374;2022-11-15T07:21:04;31.77;;;16.27;;
13295;SDS011;64850;60.390;-1.374;2022-11-15T07:23:35;35.55;;;17.65;;
13295;SDS011;64850;60.390;-1.374;2022-11-15T07:26:03;38.30;;;17.75;;
13295;SDS011;64850;60.390;-1.374;2022-11-15T07:28:29;36.25;;;17.75;;
13295;SDS011;64850;60.390;-1.374;2022-11-15T07:30:55;39.42;;;17.05;;
13295;SDS011;64850;60.390;-1.374;2022-11-15T07:33:21;40.80;;;17.13;;
13295;SDS011;64850;60.390;-1.374;2022-11-15T07:35:50;41.05;;;17.17;;
13295;SDS011;64850;60.390;-1.374;2022-11-15T07:38:16;40.35;;;16.58;;
13295;SDS011;64850;60.390;-1.374;2022-11-15T07:40:45;39.63;;;16.70;;
13295;SDS011;64850;60.390;-1.374;2022-11-15T07:43:12;36.53;;;17.33;;
13295;SDS011;64850;60.390;-1.374;2022-11-15T07:45:42;38.40;;;16.38;;
13295;SDS011;64850;60.390;-1.374;2022-11-15T07:48:10;42.15;;;17.25;;
13295;SDS011;64850;60.390;-1.374;2022-11-15T07:50:36;33.53;;;16.05;;
13295;SDS011;64850;60.390;-1.374;2022-11-15T07:53:05;37.75;;;16.85;;
13295;SDS011;64850;60.390;-1.374;2022-11-15T07:55:31;37.30;;;16.13;;
13295;SDS011;64850;60.390;-1.374;2022-11-15T07:58:01;39.63;;;16.42;;
13295;SDS011;64850;60.390;-1.374;2022-11-15T08:00:31;35.47;;;16.05;;
13295;SDS011;64850;60.390;-1.374;2022-11-15T08:05:31;43.72;;;16.45;;
13295;SDS011;64850;60.390;-1.374;2022-11-15T08:07:57;41.15;;;16.40;;
13295;SDS011;64850;60.390;-1.374;2022-11-15T08:10:24;39.00;;;15.70;;
13295;SDS011;64850;60.390;-1.374;2022-11-15T08:13:00;40.50;;;15.55;;
13295;SDS011;64850;60.390;-1.374;2022-11-15T08:15:28;32.72;;;14.88;;
13295;SDS011;64850;60.390;-1.374;2022-11-15T08:17:58;34.85;;;15.73;;
13295;SDS011;64850;60.390;-1.374;2022-11-15T08:20:25;36.90;;;15.38;;
13295;SDS011;64850;60.390;-1.374;2022-11-15T08:22:55;38.63;;;14.75;;
13295;SDS011;64850;60.390;-1.374;2022-11-15T08:25:25;32.35;;;14.82;;
13295;SDS011;64850;60.390;-1.374;2022-11-15T08:27:53;33.13;;;14.40;;
13295;SDS011;64850;60.390;-1.374;2022-11-15T08:30:20;30.67;;;14.48;;
13295;SDS011;64850;60.390;-1.374;2022-11-15T08:32:46;38.22;;;14.82;;
13295;SDS011;64850;60.390;-1.374;2022-11-15T08:35:13;39.75;;;15.38;;
13295;SDS011;64850;60.390;-1.374;2022-11-15T08:37:39;35.55;;;14.05;;
13295;SDS011;64850;60.390;-1.374;2022-11-15T08:40:05;38.53;;;13.55;;
13295;SDS011;64850;60.390;-1.374;2022-11-15T08:42:32;29.95;;;13.73;;
13295;SDS011;64850;60.390;-1.374;2022-11-15T08:44:58;31.90;;;12.95;;
13295;SDS011;64850;60.390;-1.374;2022-11-15T08:47:27;29.15;;;12.48;;
13295;SDS011;64850;60.390;-1.374;2022-11-15T08:49:53;32.53;;;13.82;;
13295;SDS011;64850;60.390;-1.374;2022-11-15T08:52:19;30.35;;;12.98;;
13295;SDS011;64850;60.390;-1.374;2022-11-15T08:54:45;30.90;;;13.77;;
13295;SDS011;64850;60.390;-1.374;2022-11-15T08:57:11;29.23;;;13.27;;
13295;SDS011;64850;60.390;-1.374;2022-11-15T08:59:37;32.78;;;12.82;;
13295;SDS011;64850;60.390;-1.374;2022-11-15T09:02:03;32.47;;;12.90;;
13295;SDS011;64850;60.390;-1.374;2022-11-15T09:04:30;33.38;;;13.90;;
13295;SDS011;64850;60.390;-1.374;2022-11-15T09:06:56;32.67;;;13.32;;
13295;SDS011;64850;60.390;-1.374;2022-11-15T09:09:22;37.28;;;14.63;;
13295;SDS011;64850;60.390;-1.374;2022-11-15T09:11:48;33.42;;;13.50;;
13295;SDS011;64850;60.390;-1.374;2022-11-15T09:14:15;33.80;;;13.38;;
13295;SDS011;64850;60.390;-1.374;2022-11-15T09:16:41;32.13;;;12.13;;
13295;SDS011;64850;60.390;-1.374;2022-11-15T09:19:07;31.92;;;14.20;;
13295;SDS011;64850;60.390;-1.374;2022-11-15T09:21:33;36.63;;;12.73;;
13295;SDS011;64850;60.390;-1.374;2022-11-15T09:23:59;26.67;;;12.52;;
13295;SDS011;64850;60.390;-1.374;2022-11-15T09:26:25;32.50;;;13.18;;
13295;SDS011;64850;60.390;-1.374;2022-11-15T09:28:51;27.75;;;12.57;;
13295;SDS011;64850;60.390;-1.374;2022-11-15T09:31:16;36.80;;;12.98;;
13295;SDS011;64850;60.390;-1.374;2022-11-15T09:33:43;27.98;;;13.55;;
13295;SDS011;64850;60.390;-1.374;2022-11-15T09:36:10;35.92;;;13.43;;
13295;SDS011;64850;60.390;-1.374;2022-11-15T09:38:36;37.30;;;12.77;;
13295;SDS011;64850;60.390;-1.374;2022-11-15T09:48:57;32.38;;;13.07;;
13295;SDS011;64850;60.390;-1.374;2022-11-15T09:53:57;37.22;;;14.15;;
13295;SDS011;64850;60.390;-1.374;2022-11-15T09:56:31;28.58;;;12.43;;
13295;SDS011;64850;60.390;-1.374;2022-11-15T10:04:45;30.98;;;12.60;;
13295;SDS011;64850;60.390;-1.374;2022-11-15T10:07:24;36.70;;;12.77;;
13295;SDS011;64850;60.390;-1.374;2022-11-15T10:10:16;28.98;;;11.80;;
13295;SDS011;64850;60.390;-1.374;2022-11-15T10:13:00;35.63;;;12.07;;
13295;SDS011;64850;60.390;-1.374;2022-11-15T10:15:27;29.23;;;11.43;;
13295;SDS011;64850;60.390;-1.374;2022-11-15T10:18:05;30.00;;;11.60;;
13295;SDS011;64850;60.390;-1.374;2022-11-15T10:20:46;34.50;;;12.45;;
13295;SDS011;64850;60.390;-1.374;2022-11-15T10:23:27;39.70;;;12.18;;
13295;SDS011;64850;60.390;-1.374;2022-11-15T10:25:55;31.13;;;11.25;;
13295;SDS011;64850;60.390;-1.374;2022-11-15T10:28:29;33.33;;;12.25;;
13295;SDS011;64850;60.390;-1.374;2022-11-15T10:30:57;36.10;;;11.18;;
13295;SDS011;64850;60.390;-1.374;2022-11-15T10:41:15;29.30;;;10.57;;
13295;SDS011;64850;60.390;-1.374;2022-11-15T10:43:41;26.25;;;9.55;;
13295;SDS011;64850;60.390;-1.374;2022-11-15T10:46:20;27.98;;;10.93;;
13295;SDS011;64850;60.390;-1.374;2022-11-15T10:48:48;26.08;;;10.23;;
13295;SDS011;64850;60.390;-1.374;2022-11-15T10:51:36;22.27;;;9.57;;
13295;SDS011;64850;60.390;-1.374;2022-11-15T10:54:28;37.03;;;11.27;;
13295;SDS011;64850;60.390;-1.374;2022-11-15T10:57:12;27.33;;;10.63;;
13295;SDS011;64850;60.390;-1.374;2022-11-15T10:59:42;33.17;;;11.02;;
13295;SDS011;64850;60.390;-1.374;2022-11-15T11:04:51;26.92;;;9.25;;
13295;SDS011;64850;60.390;-1.374;2022-11-15T11:07:21;28.88;;;10.23;;
13295;SDS011;64850;60.390;-1.374;2022-11-15T11:09:57;29.98;;;10.75;;
13295;SDS011;64850;60.390;-1.374;2022-11-15T11:12:28;29.23;;;10.73;;
13295;SDS011;64850;60.390;-1.374;2022-11-15T11:14:57;30.67;;;11.18;;
13295;SDS011;64850;60.390;-1.374;2022-11-15T11:26:49;26.38;;;9.65;;
13295;SDS011;64850;60.390;-1.374;2022-11-15T11:29:25;30.13;;;11.30;;
13295;SDS011;64850;60.390;-1.374;2022-11-15T11:35:19;32.10;;;11.18;;
13295;SDS011;64850;60.390;-1.374;2022-11-15T11:40:35;32.67;;;12.05;;
13295;SDS011;64850;60.390;-1.374;2022-11-15T11:51:18;32.00;;;10.07;;
13295;SDS011;64850;60.390;-1.374;2022-11-15T11:54:14;34.47;;;11.25;;
13295;SDS011;64850;60.390;-1.374;2022-11-15T11:57:06;30.27;;;10.55;;
13295;SDS011;64850;60.390;-1.374;2022-11-15T12:00:01;32.85;;;11.25;;
13295;SDS011;64850;60.390;-1.374;2022-11-15T12:02:34;29.30;;;10.55;;
13295;SDS011;64850;60.390;-1.374;2022-11-15T12:07:41;22.38;;;9.65;;
13295;SDS011;64850;60.390;-1.374;2022-11-15T12:10:25;29.55;;;10.55;;
13295;SDS011;64850;60.390;-1.374;2022-11-15T12:13:00;31.05;;;10.30;;
13295;SDS011;64850;60.390;-1.374;2022-11-15T12:15:32;33.17;;;10.55;;
13295;SDS011;64850;60.390;-1.374;2022-11-15T12:18:14;31.10;;;11.13;;
13295;SDS011;64850;60.390;-1.374;2022-11-15T12:20:42;25.33;;;10.07;;
13295;SDS011;64850;60.390;-1.374;2022-11-15T12:23:40;31.48;;;11.10;;
13295;SDS011;64850;60.390;-1.374;2022-11-15T12:26:17;28.38;;;9.90;;
13295;SDS011;64850;60.390;-1.374;2022-11-15T12:28:55;26.08;;;8.93;;
13295;SDS011;64850;60.390;-1.374;2022-11-15T12:34:01;24.08;;;8.48;;
13295;SDS011;64850;60.390;-1.374;2022-11-15T12:36:41;20.27;;;7.45;;
13295;SDS011;64850;60.390;-1.374;2022-11-15T12:39:12;17.77;;;7.50;;
13295;SDS011;64850;60.390;-1.374;2022-11-15T12:41:40;13.70;;;6.57;;
13295;SDS011;64850;60.390;-1.374;2022-11-15T12:44:11;21.13;;;8.45;;
13295;SDS011;64850;60.390;-1.374;2022-11-15T12:49:09;22.55;;;8.82;;
13295;SDS011;64850;60.390;-1.374;2022-11-15T13:02:35;30.83;;;8.77;;
13295;SDS011;64850;60.390;-1.374;2022-11-15T13:28:55;36.28;;;8.13;;
13295;SDS011;64850;60.390;-1.374;2022-11-15T13:31:03;27.98;;;8.57;;
13295;SDS011;64850;60.390;-1.374;2022-11-15T13:33:38;31.67;;;8.40;;
13295;SDS011;64850;60.390;-1.374;2022-11-15T13:38:39;24.65;;;6.32;;
13295;SDS011;64850;60.390;-1.374;2022-11-15T13:41:22;27.75;;;7.00;;
13295;SDS011;64850;60.390;-1.374;2022-11-15T13:43:51;23.20;;;5.75;;
13295;SDS011;64850;60.390;-1.374;2022-11-15T13:46:19;18.50;;;6.00;;
13295;SDS011;64850;60.390;-1.374;2022-11-15T13:48:52;23.38;;;6.55;;
13295;SDS011;64850;60.390;-1.374;2022-11-15T13:56:59;19.77;;;5.90;;
13295;SDS011;64850;60.390;-1.374;2022-11-15T13:59:53;27.95;;;7.47;;
13295;SDS011;64850;60.390;-1.374;2022-11-15T14:02:27;22.23;;;6.72;;
13295;SDS011;64850;60.390;-1.374;2022-11-15T14:04:58;27.77;;;6.80;;
13295;SDS011;64850;60.390;-1.374;2022-11-15T14:07:28;34.03;;;6.55;;
13295;SDS011;64850;60.390;-1.374;2022-11-15T14:09:54;18.70;;;5.20;;
13295;SDS011;64850;60.390;-1.374;2022-11-15T14:14:57;27.02;;;7.22;;
13295;SDS011;64850;60.390;-1.374;2022-11-15T14:19:57;30.65;;;7.30;;
13295;SDS011;64850;60.390;-1.374;2022-11-15T14:22:24;22.08;;;7.20;;
13295;SDS011;64850;60.390;-1.374;2022-11-15T14:28:08;31.13;;;7.85;;
13295;SDS011;64850;60.390;-1.374;2022-11-15T14:30:39;29.85;;;7.60;;
13295;SDS011;64850;60.390;-1.374;2022-11-15T14:33:17;43.83;;;8.88;;
13295;SDS011;64850;60.390;-1.374;2022-11-15T14:35:54;25.98;;;6.90;;
13295;SDS011;64850;60.390;-1.374;2022-11-15T14:38:23;36.30;;;7.50;;
13295;SDS011;64850;60.390;-1.374;2022-11-15T14:40:50;35.30;;;8.35;;
13295;SDS011;64850;60.390;-1.374;2022-11-15T14:43:16;34.92;;;7.45;;
13295;SDS011;64850;60.390;-1.374;2022-11-15T14:45:42;28.58;;;7.53;;
13295;SDS011;64850;60.390;-1.374;2022-11-15T14:48:08;30.92;;;7.72;;
13295;SDS011;64850;60.390;-1.374;2022-11-15T14:50:34;28.88;;;7.07;;
13295;SDS011;64850;60.390;-1.374;2022-11-15T14:53:00;35.92;;;8.55;;
13295;SDS011;64850;60.390;-1.374;2022-11-15T14:55:30;28.50;;;8.00;;
13295;SDS011;64850;60.390;-1.374;2022-11-15T14:58:00;29.27;;;7.93;;
13295;SDS011;64850;60.390;-1.374;2022-11-15T15:00:30;33.25;;;7.50;;
13295;SDS011;64850;60.390;-1.374;2022-11-15T15:02:57;31.25;;;7.20;;
13295;SDS011;64850;60.390;-1.374;2022-11-15T15:05:34;26.55;;;6.75;;
13295;SDS011;64850;60.390;-1.374;2022-11-15T15:08:04;27.58;;;7.13;;
13295;SDS011;64850;60.390;-1.374;2022-11-15T15:10:32;31.95;;;7.13;;
13295;SDS011;64850;60.390;-1.374;2022-11-15T15:13:00;34.15;;;7.45;;
13295;SDS011;64850;60.390;-1.374;2022-11-15T15:15:34;35.78;;;8.38;;
13295;SDS011;64850;60.390;-1.374;2022-11-15T15:18:02;37.75;;;7.10;;
13295;SDS011;64850;60.390;-1.374;2022-11-15T15:20:29;28.15;;;7.03;;
13295;SDS011;64850;60.390;-1.374;2022-11-15T15:22:59;23.65;;;5.60;;
13295;SDS011;64850;60.390;-1.374;2022-11-15T15:25:27;23.63;;;5.28;;
13295;SDS011;64850;60.390;-1.374;2022-11-15T15:28:00;20.90;;;5.13;;
13295;SDS011;64850;60.390;-1.374;2022-11-15T15:30:27;24.90;;;5.82;;
13295;SDS011;64850;60.390;-1.374;2022-11-15T15:32:54;22.35;;;5.43;;
13295;SDS011;64850;60.390;-1.374;2022-11-15T15:35:21;28.48;;;7.18;;
13295;SDS011;64850;60.390;-1.374;2022-11-15T15:37:48;21.58;;;5.95;;
13295;SDS011;64850;60.390;-1.374;2022-11-15T15:40:19;23.42;;;5.80;;
13295;SDS011;64850;60.390;-1.374;2022-11-15T15:42:47;24.85;;;6.50;;
13295;SDS011;64850;60.390;-1.374;2022-11-15T15:45:13;26.17;;;6.80;;
13295;SDS011;64850;60.390;-1.374;2022-11-15T15:47:40;27.75;;;6.80;;
13295;SDS011;64850;60.390;-1.374;2022-11-15T15:52:55;31.50;;;8.10;;
13295;SDS011;64850;60.390;-1.374;2022-11-15T15:55:22;32.50;;;8.77;;
13295;SDS011;64850;60.390;-1.374;2022-11-15T15:57:49;29.38;;;8.30;;
13295;SDS011;64850;60.390;-1.374;2022-11-15T16:00:16;33.58;;;9.15;;
13295;SDS011;64850;60.390;-1.374;2022-11-15T16:02:42;38.28;;;11.15;;
13295;SDS011;64850;60.390;-1.374;2022-11-15T16:05:08;34.08;;;10.55;;
13295;SDS011;64850;60.390;-1.374;2022-11-15T16:07:35;33.78;;;11.15;;
13295;SDS011;64850;60.390;-1.374;2022-11-15T16:10:04;42.08;;;13.98;;
13295;SDS011;64850;60.390;-1.374;2022-11-15T16:12:53;35.50;;;13.25;;
13295;SDS011;64850;60.390;-1.374;2022-11-15T16:15:20;28.98;;;10.27;;
13295;SDS011;64850;60.390;-1.374;2022-11-15T16:17:49;34.40;;;10.70;;
13295;SDS011;64850;60.390;-1.374;2022-11-15T16:22:58;40.10;;;12.25;;
13295;SDS011;64850;60.390;-1.374;2022-11-15T16:25:24;47.65;;;13.10;;
13295;SDS011;64850;60.390;-1.374;2022-11-15T16:27:50;47.00;;;13.57;;
13295;SDS011;64850;60.390;-1.374;2022-11-15T16:30:17;50.72;;;13.23;;
13295;SDS011;64850;60.390;-1.374;2022-11-15T16:32:45;38.53;;;11.85;;
13295;SDS011;64850;60.390;-1.374;2022-11-15T16:35:12;51.67;;;12.93;;
13295;SDS011;64850;60.390;-1.374;2022-11-15T16:37:39;39.75;;;12.38;;
13295;SDS011;64850;60.390;-1.374;2022-11-15T16:40:27;41.97;;;13.85;;
13295;SDS011;64850;60.390;-1.374;2022-11-15T16:42:58;44.10;;;15.50;;
13295;SDS011;64850;60.390;-1.374;2022-11-15T16:45:27;43.10;;;15.18;;
13295;SDS011;64850;60.390;-1.374;2022-11-15T16:47:54;52.40;;;16.23;;
13295;SDS011;64850;60.390;-1.374;2022-11-15T16:50:24;52.42;;;17.52;;
13295;SDS011;64850;60.390;-1.374;2022-11-15T16:52:56;51.33;;;16.85;;
13295;SDS011;64850;60.390;-1.374;2022-11-15T16:55:24;60.63;;;18.73;;
13295;SDS011;64850;60.390;-1.374;2022-11-15T16:57:52;46.70;;;16.77;;
13295;SDS011;64850;60.390;-1.374;2022-11-15T17:00:19;43.10;;;16.60;;
13295;SDS011;64850;60.390;-1.374;2022-11-15T17:02:46;48.28;;;16.95;;